createdAt,value
2019-05-05T00:01:25.017Z,94.16
2019-05-05T00:04:06.576Z,94.82
2019-05-05T00:06:36.004Z,95.10
2019-05-05T00:09:06.182Z,95.28
2019-05-05T00:11:46.037Z,95.07
2019-05-05T00:14:31.628Z,95.41
2019-05-05T00:17:07.078Z,95.46
2019-05-05T00:19:36.447Z,95.74
2019-05-05T00:22:06.088Z,95.95
2019-05-05T00:24:35.559Z,96.07
2019-05-05T00:27:04.882Z,96.37
2019-05-05T00:29:34.794Z,96.52
2019-05-05T00:32:05.035Z,95.60
2019-05-05T00:34:35.091Z,95.95
2019-05-05T00:37:04.763Z,96.21
2019-05-05T00:39:34.582Z,96.10
2019-05-05T00:42:05.323Z,95.97
2019-05-05T00:44:35.286Z,96.24
2019-05-05T00:47:29.487Z,96.19
2019-05-05T00:49:59.175Z,96.52
2019-05-05T00:52:28.614Z,96.50
2019-05-05T00:54:58.028Z,95.58
2019-05-05T00:57:27.373Z,95.08
2019-05-05T00:59:56.712Z,94.86
2019-05-05T01:02:38.563Z,95.63
2019-05-05T01:05:25.475Z,96.36
2019-05-05T01:07:54.930Z,96.04
2019-05-05T01:10:24.914Z,96.21
2019-05-05T01:12:54.648Z,95.35
2019-05-05T01:15:25.445Z,94.69
2019-05-05T01:17:55.381Z,94.72
2019-05-05T01:20:25.114Z,94.73
2019-05-05T01:22:55.357Z,94.57
2019-05-05T01:25:25.455Z,94.67
2019-05-05T01:27:55.188Z,94.26
2019-05-05T01:30:51.643Z,94.11
2019-05-05T01:33:35.238Z,94.39
2019-05-05T01:36:04.976Z,94.71
2019-05-05T01:38:49.148Z,94.29
2019-05-05T01:41:26.177Z,93.65
2019-05-05T01:43:55.502Z,93.86
2019-05-05T01:46:24.835Z,93.74
2019-05-05T01:48:54.928Z,93.38
2019-05-05T01:51:24.834Z,93.56
2019-05-05T01:53:54.681Z,93.22
2019-05-05T01:56:24.798Z,92.99
2019-05-05T01:58:54.916Z,92.82
2019-05-05T02:01:24.749Z,92.99
2019-05-05T02:03:54.985Z,92.51
2019-05-05T02:06:24.973Z,92.96
2019-05-05T02:08:54.989Z,92.70
2019-05-05T02:11:24.858Z,92.60
2019-05-05T02:13:54.735Z,93.11
2019-05-05T02:16:25.331Z,93.35
2019-05-05T02:18:55.112Z,93.54
2019-05-05T02:21:24.870Z,93.80
2019-05-05T02:23:54.901Z,93.41
2019-05-05T02:26:24.724Z,93.03
2019-05-05T02:29:00.776Z,93.42
2019-05-05T02:31:49.001Z,93.80
2019-05-05T02:34:18.466Z,93.58
2019-05-05T02:36:47.850Z,93.07
2019-05-05T02:39:17.246Z,93.29
2019-05-05T02:41:47.118Z,93.39
2019-05-05T02:44:16.723Z,93.88
2019-05-05T02:46:56.003Z,93.77
2019-05-05T02:49:25.932Z,93.88
2019-05-05T02:51:55.670Z,94.21
2019-05-05T02:54:25.983Z,93.91
2019-05-05T02:56:56.035Z,93.98
2019-05-05T02:59:35.283Z,93.89
2019-05-05T03:02:17.170Z,94.14
2019-05-05T03:04:47.270Z,94.19
2019-05-05T03:07:17.517Z,94.34
2019-05-05T03:09:47.627Z,93.91
2019-05-05T03:12:20.415Z,93.89
2019-05-05T03:14:53.631Z,93.88
2019-05-05T03:17:23.843Z,93.88
2019-05-05T03:19:53.673Z,94.26
2019-05-05T03:22:25.381Z,94.16
2019-05-05T03:24:55.060Z,94.22
2019-05-05T03:27:24.747Z,93.90
2019-05-05T03:29:54.187Z,94.09
2019-05-05T03:32:25.569Z,94.22
2019-05-05T03:34:55.329Z,93.02
2019-05-05T03:37:25.138Z,93.41
2019-05-05T03:40:04.410Z,92.81
2019-05-05T03:42:55.434Z,92.51
2019-05-05T03:45:40.317Z,92.36
2019-05-05T03:48:10.025Z,92.80
2019-05-05T03:50:39.496Z,92.27
2019-05-05T03:53:08.935Z,92.56
2019-05-05T03:55:38.459Z,93.06
2019-05-05T03:58:07.747Z,92.21
2019-05-05T04:02:16.380Z,92.83
2019-05-05T04:04:49.044Z,92.93
2019-05-05T04:07:18.936Z,93.00
2019-05-05T04:09:48.443Z,93.19
2019-05-05T04:12:18.844Z,93.40
2019-05-05T04:14:48.168Z,93.34
2019-05-05T04:17:45.383Z,93.27
2019-05-05T04:20:33.700Z,92.65
2019-05-05T04:23:03.704Z,92.78
2019-05-05T04:25:34.958Z,93.01
2019-05-05T04:28:04.834Z,92.84
2019-05-05T04:30:34.260Z,92.08
2019-05-05T04:33:04.749Z,91.96
2019-05-05T04:35:34.441Z,91.18
2019-05-05T04:38:04.719Z,91.45
2019-05-05T04:40:34.579Z,91.88
2019-05-05T04:43:04.140Z,91.54
2019-05-05T04:45:34.712Z,91.20
2019-05-05T04:48:14.535Z,91.77
2019-05-05T04:51:04.709Z,91.19
2019-05-05T04:53:54.329Z,90.41
2019-05-05T04:56:23.708Z,89.92
2019-05-05T04:58:54.427Z,89.99
2019-05-05T05:01:24.249Z,89.34
2019-05-05T05:04:18.311Z,89.54
2019-05-05T05:06:50.786Z,89.28
2019-05-05T05:09:20.104Z,88.67
2019-05-05T05:11:49.451Z,88.93
2019-05-05T05:14:18.647Z,88.27
2019-05-05T05:16:48.503Z,87.70
2019-05-05T05:19:17.679Z,86.93
2019-05-05T05:21:58.472Z,85.84
2019-05-05T05:24:18.102Z,85.01
2019-05-05T05:26:47.572Z,84.48
2019-05-05T05:29:16.738Z,84.22
2019-05-05T05:31:46.009Z,84.27
2019-05-05T05:34:15.233Z,83.77
2019-05-05T05:36:45.021Z,83.79
2019-05-05T05:39:44.042Z,82.82
2019-05-05T05:42:13.801Z,82.16
2019-05-05T05:45:04.907Z,79.18
2019-05-05T05:47:53.716Z,80.48
2019-05-05T05:50:47.745Z,82.16
2019-05-05T05:53:17.133Z,83.97
2019-05-05T05:55:46.363Z,83.98
2019-05-05T05:58:15.721Z,84.12
2019-05-05T06:00:45.022Z,83.57
2019-05-05T06:03:14.411Z,82.52
2019-05-05T06:05:43.811Z,80.67
2019-05-05T06:08:14.157Z,78.85
2019-05-05T06:10:44.388Z,77.78
2019-05-05T06:13:15.249Z,78.24
2019-05-05T06:15:44.893Z,77.91
2019-05-05T06:18:14.305Z,78.67
2019-05-05T06:20:44.525Z,81.28
2019-05-05T06:23:14.844Z,80.88
2019-05-05T06:25:44.848Z,81.95
2019-05-05T06:28:14.738Z,82.70
2019-05-05T06:30:44.537Z,81.76
2019-05-05T06:33:13.988Z,81.73
2019-05-05T06:35:44.335Z,80.02
2019-05-05T06:38:13.926Z,78.20
2019-05-05T06:41:00.878Z,77.04
2019-05-05T06:43:49.144Z,72.51
2019-05-05T06:46:23.629Z,68.78
2019-05-05T06:48:53.868Z,70.36
2019-05-05T06:51:24.519Z,70.39
2019-05-05T06:53:54.059Z,74.13
2019-05-05T06:56:23.814Z,74.84
2019-05-05T06:58:54.019Z,75.94
2019-05-05T07:01:24.791Z,72.25
2019-05-05T07:03:54.299Z,69.72
2019-05-05T07:06:23.990Z,58.98
2019-05-05T07:08:54.485Z,56.78
2019-05-05T07:11:24.053Z,57.56
2019-05-05T07:13:53.762Z,60.79
2019-05-05T07:16:24.391Z,59.69
2019-05-05T07:18:54.116Z,56.63
2019-05-05T07:21:23.835Z,55.51
2019-05-05T07:23:53.870Z,60.11
2019-05-05T07:26:23.847Z,59.23
2019-05-05T07:28:54.194Z,60.97
2019-05-05T07:31:24.035Z,58.48
2019-05-05T07:33:54.440Z,60.18
2019-05-05T07:36:44.312Z,58.32
2019-05-05T07:39:14.395Z,57.41
2019-05-05T07:41:44.764Z,57.78
2019-05-05T07:44:25.880Z,56.46
2019-05-05T07:46:45.585Z,58.23
2019-05-05T07:49:14.992Z,55.29
2019-05-05T07:51:44.520Z,55.20
2019-05-05T07:54:14.659Z,55.38
2019-05-05T07:56:44.501Z,52.80
2019-05-05T07:59:14.753Z,51.30
2019-05-05T08:01:46.489Z,51.67
2019-05-05T08:04:15.185Z,53.76
2019-05-05T08:06:44.661Z,58.08
2019-05-05T08:09:14.730Z,60.75
2019-05-05T08:11:44.097Z,64.79
2019-05-05T08:14:14.558Z,64.72
2019-05-05T08:17:04.152Z,65.94
2019-05-05T08:19:37.950Z,66.85
2019-05-05T08:22:07.302Z,68.27
2019-05-05T08:25:14.526Z,69.12
2019-05-05T08:28:01.542Z,68.29
2019-05-05T08:30:40.863Z,67.86
2019-05-05T08:33:10.058Z,66.43
2019-05-05T08:35:39.373Z,66.37
2019-05-05T08:38:08.649Z,67.07
2019-05-05T08:40:37.859Z,67.62
2019-05-05T08:43:07.085Z,68.56
2019-05-05T08:45:36.290Z,70.71
2019-05-05T08:48:05.734Z,71.02
2019-05-05T08:50:35.089Z,70.66
2019-05-05T08:53:08.314Z,71.33
2019-05-05T08:55:35.605Z,73.05
2019-05-05T08:58:04.917Z,74.88
2019-05-05T09:00:34.521Z,74.97
2019-05-05T09:03:04.032Z,72.79
2019-05-05T09:05:34.391Z,68.87
2019-05-05T09:08:04.677Z,67.46
2019-05-05T09:10:34.480Z,65.54
2019-05-05T09:13:04.323Z,65.95
2019-05-05T09:15:33.925Z,65.67
2019-05-05T09:18:04.979Z,65.20
2019-05-05T09:20:34.883Z,66.84
2019-05-05T09:23:04.704Z,67.81
2019-05-05T09:25:53.961Z,66.17
2019-05-05T09:28:44.470Z,64.85
2019-05-05T09:31:14.626Z,64.68
2019-05-05T09:33:44.316Z,62.72
2019-05-05T09:36:13.966Z,63.97
2019-05-05T09:38:45.059Z,65.82
2019-05-05T09:41:14.475Z,62.89
2019-05-05T09:43:44.601Z,65.32
2019-05-05T09:46:14.473Z,61.62
2019-05-05T09:48:44.138Z,55.25
2019-05-05T09:51:13.713Z,47.27
2019-05-05T09:53:44.786Z,52.24
2019-05-05T09:56:14.615Z,50.87
2019-05-05T09:58:44.253Z,51.59
2019-05-05T10:01:14.136Z,53.24
2019-05-05T10:03:44.680Z,51.69
2019-05-05T10:06:14.347Z,48.89
2019-05-05T10:08:44.673Z,54.63
2019-05-05T10:11:16.519Z,53.19
2019-05-05T10:13:45.139Z,57.06
2019-05-05T10:16:14.472Z,58.28
2019-05-05T10:18:44.871Z,54.47
2019-05-05T10:21:17.463Z,45.35
2019-05-05T10:23:47.193Z,47.64
2019-05-05T10:26:16.370Z,43.20
2019-05-05T10:28:45.591Z,45.00
2019-05-05T10:31:14.737Z,46.70
2019-05-05T10:33:49.044Z,51.23
2019-05-05T10:36:18.353Z,50.56
2019-05-05T10:38:51.030Z,51.21
2019-05-05T10:41:20.193Z,52.78
2019-05-05T10:43:49.398Z,52.91
2019-05-05T10:46:18.546Z,59.16
2019-05-05T10:48:47.788Z,60.98
2019-05-05T10:51:16.969Z,63.53
2019-05-05T10:53:46.208Z,65.94
2019-05-05T10:56:15.414Z,66.15
2019-05-05T10:58:44.622Z,64.41
2019-05-05T11:01:14.495Z,57.57
2019-05-05T11:03:44.615Z,51.75
2019-05-05T11:06:14.101Z,46.34
2019-05-05T11:08:45.141Z,44.41
2019-05-05T11:11:14.167Z,48.57
2019-05-05T11:13:45.517Z,51.64
2019-05-05T11:16:15.176Z,43.42
2019-05-05T11:18:44.365Z,37.29
2019-05-05T11:21:14.468Z,38.42
2019-05-05T11:23:44.805Z,42.24
2019-05-05T11:26:14.521Z,44.85
2019-05-05T11:28:44.501Z,49.30
2019-05-05T11:31:13.962Z,48.29
2019-05-05T11:34:07.480Z,48.62
2019-05-05T11:37:03.611Z,49.38
2019-05-05T11:39:34.010Z,44.16
2019-05-05T11:42:04.453Z,38.30
2019-05-05T11:44:33.817Z,34.83
2019-05-05T11:47:03.783Z,36.95
2019-05-05T11:49:33.823Z,41.16
2019-05-05T11:52:04.606Z,43.78
2019-05-05T11:54:35.026Z,45.97
2019-05-05T11:57:04.601Z,46.97
2019-05-05T11:59:34.539Z,46.82
2019-05-05T12:02:03.955Z,48.36
2019-05-05T12:04:33.123Z,50.33
2019-05-05T12:07:04.093Z,51.67
2019-05-05T12:09:44.744Z,51.77
2019-05-05T12:12:14.315Z,45.23
2019-05-05T12:14:43.875Z,42.43
2019-05-05T12:17:14.807Z,43.25
2019-05-05T12:19:44.003Z,43.40
2019-05-05T12:22:13.434Z,40.81
2019-05-05T12:24:45.773Z,41.86
2019-05-05T12:27:24.845Z,41.68
2019-05-05T12:29:58.030Z,38.08
2019-05-05T12:32:27.341Z,40.02
2019-05-05T12:34:56.638Z,40.85
2019-05-05T12:37:25.905Z,41.99
2019-05-05T12:39:55.183Z,45.79
2019-05-05T12:42:24.433Z,46.24
2019-05-05T12:45:05.712Z,45.60
2019-05-05T12:47:53.967Z,46.50
2019-05-05T12:50:24.583Z,43.13
2019-05-05T12:52:54.880Z,44.79
2019-05-05T12:55:38.347Z,47.23
2019-05-05T12:57:55.303Z,47.05
2019-05-05T13:00:25.581Z,48.71
2019-05-05T13:02:54.910Z,48.44
2019-05-05T13:05:24.158Z,52.84
2019-05-05T13:07:54.203Z,63.32
2019-05-05T13:10:25.808Z,63.19
2019-05-05T13:12:56.765Z,64.06
2019-05-05T13:15:26.944Z,63.05
2019-05-05T13:18:01.089Z,59.76
2019-05-05T13:20:50.242Z,58.72
2019-05-05T13:23:30.860Z,57.84
2019-05-05T13:26:15.990Z,55.57
2019-05-05T13:28:45.864Z,54.53
2019-05-05T13:31:15.035Z,53.75
2019-05-05T13:33:44.378Z,53.66
2019-05-05T13:36:13.908Z,50.22
2019-05-05T13:38:43.863Z,42.19
2019-05-05T13:41:13.529Z,35.27
2019-05-05T13:43:42.915Z,32.94
2019-05-05T13:46:17.017Z,35.24
2019-05-05T13:48:46.963Z,36.23
2019-05-05T13:51:16.609Z,36.05
2019-05-05T13:53:45.869Z,35.71
2019-05-05T13:56:15.553Z,32.41
2019-05-05T13:58:45.577Z,32.68
2019-05-05T14:01:14.921Z,30.82
2019-05-05T14:03:44.803Z,32.95
2019-05-05T14:06:14.165Z,31.88
2019-05-05T14:08:44.798Z,31.88
2019-05-05T14:11:14.399Z,35.64
2019-05-05T14:13:45.466Z,34.42
2019-05-05T14:16:14.847Z,34.42
2019-05-05T14:18:44.374Z,35.80
2019-05-05T14:21:14.112Z,34.61
2019-05-05T14:25:24.257Z,31.31
2019-05-05T14:27:54.115Z,34.15
2019-05-05T14:30:43.635Z,35.58
2019-05-05T14:33:23.548Z,35.89
2019-05-05T14:36:14.385Z,34.38
2019-05-05T14:38:55.243Z,32.99
2019-05-05T14:41:24.692Z,34.12
2019-05-05T14:43:56.383Z,35.57
2019-05-05T14:46:25.293Z,33.38
2019-05-05T14:48:54.824Z,32.64
2019-05-05T14:51:24.135Z,36.21
2019-05-05T14:53:54.246Z,37.76
2019-05-05T14:56:35.606Z,39.42
2019-05-05T14:58:54.833Z,37.24
2019-05-05T15:01:24.802Z,36.84
2019-05-05T15:03:54.213Z,37.13
2019-05-05T15:06:41.120Z,37.12
2019-05-05T15:09:37.316Z,37.25
2019-05-05T15:12:24.176Z,40.36
2019-05-05T15:14:54.644Z,38.27
2019-05-05T15:17:24.639Z,37.99
2019-05-05T15:19:54.188Z,41.83
2019-05-05T15:22:24.032Z,41.68
2019-05-05T15:24:53.746Z,43.26
2019-05-05T15:27:24.237Z,42.29
2019-05-05T15:29:54.375Z,44.54
2019-05-05T15:32:24.269Z,45.37
2019-05-05T15:34:54.571Z,45.39
2019-05-05T15:37:24.231Z,46.22
2019-05-05T15:39:53.786Z,46.10
2019-05-05T15:42:23.353Z,42.87
2019-05-05T15:44:54.393Z,44.62
2019-05-05T15:47:25.613Z,42.31
2019-05-05T15:49:55.125Z,40.09
2019-05-05T15:52:24.419Z,40.53
2019-05-05T15:54:54.046Z,41.52
2019-05-05T15:57:24.126Z,42.64
2019-05-05T15:59:54.282Z,43.71
2019-05-05T16:02:24.096Z,43.68
2019-05-05T16:04:54.078Z,46.13
2019-05-05T16:07:24.230Z,47.47
2019-05-05T16:09:53.886Z,48.15
2019-05-05T16:12:33.384Z,49.54
2019-05-05T16:15:11.273Z,49.78
2019-05-05T16:17:46.418Z,50.98
2019-05-05T16:20:21.728Z,52.25
2019-05-05T16:23:07.235Z,53.40
2019-05-05T16:25:36.679Z,54.57
2019-05-05T16:28:06.018Z,54.78
2019-05-05T16:30:35.335Z,54.61
2019-05-05T16:33:04.578Z,54.03
2019-05-05T16:35:34.307Z,54.79
2019-05-05T16:38:06.304Z,55.62
2019-05-05T16:40:34.888Z,56.07
2019-05-05T16:43:04.725Z,57.27
2019-05-05T16:45:34.190Z,58.70
2019-05-05T16:48:03.978Z,58.63
2019-05-05T16:50:34.105Z,61.31
2019-05-05T16:53:05.937Z,61.44
2019-05-05T16:55:55.692Z,61.09
2019-05-05T16:58:25.006Z,62.62
2019-05-05T17:00:54.514Z,63.24
2019-05-05T17:03:24.118Z,63.95
2019-05-05T17:05:54.584Z,64.39
2019-05-05T17:08:24.637Z,65.04
2019-05-05T17:10:54.051Z,64.19
2019-05-05T17:13:44.035Z,64.14
2019-05-05T17:16:30.850Z,63.12
2019-05-05T17:19:09.387Z,62.23
2019-05-05T17:22:00.633Z,63.62
2019-05-05T17:24:29.982Z,62.24
2019-05-05T17:26:59.258Z,62.73
2019-05-05T17:29:28.662Z,62.72
2019-05-05T17:31:57.986Z,63.39
2019-05-05T17:34:27.226Z,65.08
2019-05-05T17:36:56.607Z,65.76
2019-05-05T17:39:27.598Z,65.64
2019-05-05T17:42:18.887Z,64.85
2019-05-05T17:45:44.018Z,64.59
2019-05-05T17:48:20.271Z,65.02
2019-05-05T17:51:11.447Z,65.16
2019-05-05T17:54:03.698Z,65.42
2019-05-05T17:56:33.630Z,64.75
2019-05-05T17:59:03.552Z,64.51
2019-05-05T18:01:33.621Z,64.45
2019-05-05T18:04:04.123Z,65.63
2019-05-05T18:06:47.386Z,65.43
2019-05-05T18:09:27.465Z,65.83
2019-05-05T18:12:24.645Z,65.69
2019-05-05T18:14:55.411Z,66.56
2019-05-05T18:17:24.713Z,66.57
2019-05-05T18:19:54.118Z,67.21
2019-05-05T18:22:24.630Z,66.22
2019-05-05T18:24:54.308Z,67.30
2019-05-05T18:27:23.810Z,66.12
2019-05-05T18:29:54.424Z,67.20
2019-05-05T18:32:24.423Z,67.49
2019-05-05T18:34:54.484Z,67.72
2019-05-05T18:37:24.320Z,68.31
2019-05-05T18:39:54.595Z,69.03
2019-05-05T18:42:25.214Z,69.00
2019-05-05T18:45:04.906Z,69.41
2019-05-05T18:47:34.444Z,68.43
2019-05-05T18:50:04.201Z,69.23
2019-05-05T18:52:34.648Z,69.44
2019-05-05T18:55:04.558Z,70.37
2019-05-05T18:57:34.320Z,70.51
2019-05-05T19:00:05.016Z,71.04
2019-05-05T19:02:50.780Z,71.55
2019-05-05T19:05:44.788Z,71.65
2019-05-05T19:08:33.006Z,72.60
2019-05-05T19:11:03.732Z,73.46
2019-05-05T19:13:34.066Z,74.17
2019-05-05T19:16:03.883Z,75.09
2019-05-05T19:18:34.012Z,75.12
2019-05-05T19:21:24.984Z,75.26
2019-05-05T19:23:54.449Z,75.94
2019-05-05T19:26:24.140Z,75.80
2019-05-05T19:28:54.753Z,75.19
2019-05-05T19:31:24.374Z,75.55
2019-05-05T19:33:55.629Z,75.97
2019-05-05T19:36:27.341Z,76.59
2019-05-05T19:38:55.924Z,76.01
2019-05-05T19:41:25.367Z,75.87
2019-05-05T19:43:55.210Z,76.09
2019-05-05T19:46:30.832Z,75.60
2019-05-05T19:49:16.104Z,75.48
2019-05-05T19:51:45.773Z,75.29
2019-05-05T19:54:15.117Z,75.90
2019-05-05T19:56:45.245Z,75.69
2019-05-05T19:59:14.641Z,75.77
2019-05-05T20:01:44.961Z,75.68
2019-05-05T20:04:14.849Z,75.39
2019-05-05T20:06:44.513Z,75.42
2019-05-05T20:09:14.497Z,76.20
2019-05-05T20:11:44.115Z,75.96
2019-05-05T20:14:15.075Z,76.28
2019-05-05T20:17:04.395Z,76.55
2019-05-05T20:19:39.244Z,77.18
2019-05-05T20:22:08.601Z,77.41
2019-05-05T20:24:37.953Z,77.80
2019-05-05T20:27:07.333Z,77.88
2019-05-05T20:29:37.590Z,78.34
2019-05-05T20:32:07.165Z,79.13
2019-05-05T20:35:04.360Z,79.85
2019-05-05T20:37:58.688Z,80.55
2019-05-05T20:40:30.695Z,81.05
2019-05-05T20:43:00.074Z,81.79
2019-05-05T20:45:31.081Z,81.95
2019-05-05T20:48:00.482Z,83.09
2019-05-05T20:50:29.997Z,83.32
2019-05-05T20:52:59.308Z,84.02
2019-05-05T20:55:28.714Z,83.47
2019-05-05T20:57:58.125Z,83.56
2019-05-05T21:00:27.548Z,83.37
2019-05-05T21:02:57.007Z,84.13
2019-05-05T21:05:26.406Z,83.76
2019-05-05T21:07:55.780Z,83.38
2019-05-05T21:10:25.138Z,84.23
2019-05-05T21:12:54.613Z,84.47
2019-05-05T21:15:24.687Z,84.15
2019-05-05T21:17:54.459Z,84.57
2019-05-05T21:20:24.191Z,84.51
2019-05-05T21:23:03.690Z,84.58
2019-05-05T21:25:35.198Z,84.39
2019-05-05T21:28:04.590Z,84.40
2019-05-05T21:30:33.972Z,85.13
2019-05-05T21:33:04.394Z,86.15
2019-05-05T21:35:34.862Z,86.74
2019-05-05T21:38:04.963Z,87.31
2019-05-05T21:40:34.734Z,86.77
2019-05-05T21:43:05.137Z,86.95
2019-05-05T21:45:34.961Z,87.24
2019-05-05T21:48:04.574Z,86.55
2019-05-05T21:50:42.343Z,86.39
2019-05-05T21:53:17.116Z,86.92
2019-05-05T21:56:04.389Z,87.23
2019-05-05T21:58:44.847Z,86.31
2019-05-05T22:01:19.823Z,87.40
2019-05-05T22:03:49.041Z,87.32
2019-05-05T22:06:18.165Z,87.53
2019-05-05T22:08:47.435Z,87.52
2019-05-05T22:11:16.591Z,87.47
2019-05-05T22:13:45.802Z,87.11
2019-05-05T22:16:14.991Z,86.75
2019-05-05T22:18:46.555Z,86.79
2019-05-05T22:21:30.271Z,85.78
2019-05-05T22:24:16.954Z,86.24
2019-05-05T22:26:46.090Z,86.77
2019-05-05T22:29:16.943Z,86.79
2019-05-05T22:31:46.813Z,86.52
2019-05-05T22:34:16.008Z,87.23
2019-05-05T22:36:45.472Z,88.10
2019-05-05T22:39:17.069Z,88.57
2019-05-05T22:41:46.840Z,88.89
2019-05-05T22:44:16.273Z,89.08
2019-05-05T22:46:45.817Z,89.12
2019-05-05T22:49:15.027Z,89.72
2019-05-05T22:51:44.867Z,89.18
2019-05-05T22:54:14.933Z,88.89
2019-05-05T22:56:44.927Z,88.52
2019-05-05T22:59:14.148Z,88.94
2019-05-05T23:01:43.350Z,89.04
2019-05-05T23:04:34.892Z,89.93
2019-05-05T23:07:08.285Z,90.34
2019-05-05T23:09:37.460Z,90.84
2019-05-05T23:12:06.677Z,91.78
2019-05-05T23:14:35.817Z,91.61
2019-05-05T23:17:26.249Z,91.33
2019-05-05T23:20:04.636Z,91.24
2019-05-05T23:22:45.453Z,90.56
2019-05-05T23:25:20.941Z,90.40
2019-05-05T23:27:50.918Z,90.69
2019-05-05T23:30:23.584Z,90.91
2019-05-05T23:32:54.641Z,91.20
2019-05-05T23:35:24.022Z,91.20
2019-05-05T23:37:55.227Z,91.49
2019-05-05T23:40:25.577Z,92.03
2019-05-05T23:42:54.785Z,91.81
2019-05-05T23:45:24.998Z,91.07
2019-05-05T23:47:54.854Z,90.07
2019-05-05T23:50:24.228Z,89.48
2019-05-05T23:52:54.516Z,89.39
2019-05-05T23:55:24.311Z,89.12
2019-05-05T23:57:54.730Z,89.80
